sensor_id;sensor_type;location;lat;lon;timestamp;P1;durP1;ratioP1;P2;durP2;ratioP2
25721;SDS011;13578;53.450;15.496;2023-05-06T00:01:09;8.13;;;3.35;;
25721;SDS011;13578;53.450;15.496;2023-05-06T00:04:11;4.45;;;3.58;;
25721;SDS011;13578;53.450;15.496;2023-05-06T00:07:12;4.72;;;3.67;;
25721;SDS011;13578;53.450;15.496;2023-05-06T00:10:12;3.22;;;2.92;;
25721;SDS011;13578;53.450;15.496;2023-05-06T00:13:13;5.85;;;3.45;;
25721;SDS011;13578;53.450;15.496;2023-05-06T00:16:14;4.97;;;3.60;;
25721;SDS011;13578;53.450;15.496;2023-05-06T00:19:14;7.10;;;2.95;;
25721;SDS011;13578;53.450;15.496;2023-05-06T00:22:15;7.13;;;3.33;;
25721;SDS011;13578;53.450;15.496;2023-05-06T00:25:16;8.35;;;3.40;;
25721;SDS011;13578;53.450;15.496;2023-05-06T00:28:16;6.82;;;3.90;;
25721;SDS011;13578;53.450;15.496;2023-05-06T00:31:17;12.57;;;3.50;;
25721;SDS011;13578;53.450;15.496;2023-05-06T00:34:18;4.57;;;3.78;;
25721;SDS011;13578;53.450;15.496;2023-05-06T00:37:18;4.13;;;3.47;;
25721;SDS011;13578;53.450;15.496;2023-05-06T00:40:19;4.03;;;3.20;;
25721;SDS011;13578;53.450;15.496;2023-05-06T00:43:19;6.32;;;3.20;;
25721;SDS011;13578;53.450;15.496;2023-05-06T00:46:20;9.68;;;3.88;;
25721;SDS011;13578;53.450;15.496;2023-05-06T00:49:21;4.20;;;3.20;;
25721;SDS011;13578;53.450;15.496;2023-05-06T00:52:23;6.38;;;4.38;;
25721;SDS011;13578;53.450;15.496;2023-05-06T00:55:24;6.28;;;3.72;;
25721;SDS011;13578;53.450;15.496;2023-05-06T00:58:25;12.13;;;3.80;;
25721;SDS011;13578;53.450;15.496;2023-05-06T01:01:26;10.38;;;3.33;;
25721;SDS011;13578;53.450;15.496;2023-05-06T01:04:32;6.95;;;3.67;;
25721;SDS011;13578;53.450;15.496;2023-05-06T01:07:47;5.85;;;3.97;;
25721;SDS011;13578;53.450;15.496;2023-05-06T01:10:57;6.35;;;3.90;;
25721;SDS011;13578;53.450;15.496;2023-05-06T01:14:15;10.07;;;4.03;;
25721;SDS011;13578;53.450;15.496;2023-05-06T01:17:33;6.63;;;3.67;;
25721;SDS011;13578;53.450;15.496;2023-05-06T01:20:37;11.40;;;4.18;;
25721;SDS011;13578;53.450;15.496;2023-05-06T01:23:54;4.40;;;3.70;;
25721;SDS011;13578;53.450;15.496;2023-05-06T01:26:59;4.28;;;3.53;;
25721;SDS011;13578;53.450;15.496;2023-05-06T01:30:00;12.35;;;3.80;;
25721;SDS011;13578;53.450;15.496;2023-05-06T01:33:08;3.80;;;3.35;;
25721;SDS011;13578;53.450;15.496;2023-05-06T01:36:24;6.03;;;3.78;;
25721;SDS011;13578;53.450;15.496;2023-05-06T01:39:31;5.85;;;3.95;;
25721;SDS011;13578;53.450;15.496;2023-05-06T01:42:33;4.85;;;4.00;;
25721;SDS011;13578;53.450;15.496;2023-05-06T01:45:35;3.95;;;3.38;;
25721;SDS011;13578;53.450;15.496;2023-05-06T01:48:38;4.60;;;3.45;;
25721;SDS011;13578;53.450;15.496;2023-05-06T01:51:39;5.75;;;3.97;;
25721;SDS011;13578;53.450;15.496;2023-05-06T01:54:45;9.10;;;3.95;;
25721;SDS011;13578;53.450;15.496;2023-05-06T01:57:46;6.85;;;3.88;;
25721;SDS011;13578;53.450;15.496;2023-05-06T02:00:47;7.20;;;3.88;;
25721;SDS011;13578;53.450;15.496;2023-05-06T02:03:47;4.93;;;3.88;;
25721;SDS011;13578;53.450;15.496;2023-05-06T02:06:48;6.07;;;3.85;;
25721;SDS011;13578;53.450;15.496;2023-05-06T02:09:49;8.18;;;3.55;;
25721;SDS011;13578;53.450;15.496;2023-05-06T02:12:49;7.00;;;3.80;;
25721;SDS011;13578;53.450;15.496;2023-05-06T02:15:53;9.00;;;3.78;;
25721;SDS011;13578;53.450;15.496;2023-05-06T02:18:54;4.35;;;3.90;;
25721;SDS011;13578;53.450;15.496;2023-05-06T02:21:55;4.97;;;3.60;;
25721;SDS011;13578;53.450;15.496;2023-05-06T02:24:56;6.63;;;4.03;;
25721;SDS011;13578;53.450;15.496;2023-05-06T02:27:57;5.18;;;3.92;;
25721;SDS011;13578;53.450;15.496;2023-05-06T02:30:57;8.75;;;3.53;;
25721;SDS011;13578;53.450;15.496;2023-05-06T02:33:58;6.13;;;3.78;;
25721;SDS011;13578;53.450;15.496;2023-05-06T02:36:58;8.35;;;3.97;;
25721;SDS011;13578;53.450;15.496;2023-05-06T02:39:59;5.60;;;3.42;;
25721;SDS011;13578;53.450;15.496;2023-05-06T02:43:00;5.20;;;3.70;;
25721;SDS011;13578;53.450;15.496;2023-05-06T02:46:00;4.88;;;3.47;;
25721;SDS011;13578;53.450;15.496;2023-05-06T02:49:01;5.05;;;3.33;;
25721;SDS011;13578;53.450;15.496;2023-05-06T02:52:02;11.23;;;3.80;;
25721;SDS011;13578;53.450;15.496;2023-05-06T02:55:04;6.00;;;3.20;;
25721;SDS011;13578;53.450;15.496;2023-05-06T02:58:05;11.32;;;3.85;;
25721;SDS011;13578;53.450;15.496;2023-05-06T03:01:06;9.70;;;3.22;;
25721;SDS011;13578;53.450;15.496;2023-05-06T03:04:06;7.43;;;3.33;;
25721;SDS011;13578;53.450;15.496;2023-05-06T03:07:07;4.03;;;3.20;;
25721;SDS011;13578;53.450;15.496;2023-05-06T03:10:08;6.47;;;3.90;;
25721;SDS011;13578;53.450;15.496;2023-05-06T03:13:09;6.82;;;3.47;;
25721;SDS011;13578;53.450;15.496;2023-05-06T03:16:12;5.28;;;3.65;;
25721;SDS011;13578;53.450;15.496;2023-05-06T03:19:13;6.40;;;3.53;;
25721;SDS011;13578;53.450;15.496;2023-05-06T03:22:14;6.75;;;3.90;;
25721;SDS011;13578;53.450;15.496;2023-05-06T03:25:14;10.98;;;4.05;;
25721;SDS011;13578;53.450;15.496;2023-05-06T03:28:15;8.93;;;4.07;;
25721;SDS011;13578;53.450;15.496;2023-05-06T03:31:15;10.73;;;3.85;;
25721;SDS011;13578;53.450;15.496;2023-05-06T03:34:16;4.60;;;3.58;;
25721;SDS011;13578;53.450;15.496;2023-05-06T03:37:17;5.07;;;3.97;;
25721;SDS011;13578;53.450;15.496;2023-05-06T03:40:17;3.85;;;3.28;;
25721;SDS011;13578;53.450;15.496;2023-05-06T03:43:18;7.43;;;4.05;;
25721;SDS011;13578;53.450;15.496;2023-05-06T03:46:21;8.30;;;5.28;;
25721;SDS011;13578;53.450;15.496;2023-05-06T03:49:22;7.88;;;4.28;;
25721;SDS011;13578;53.450;15.496;2023-05-06T03:52:23;7.82;;;3.67;;
25721;SDS011;13578;53.450;15.496;2023-05-06T03:55:23;5.47;;;3.60;;
25721;SDS011;13578;53.450;15.496;2023-05-06T03:58:24;5.82;;;3.92;;
25721;SDS011;13578;53.450;15.496;2023-05-06T04:01:24;4.88;;;3.72;;
25721;SDS011;13578;53.450;15.496;2023-05-06T04:04:25;6.00;;;4.00;;
25721;SDS011;13578;53.450;15.496;2023-05-06T04:07:26;7.90;;;4.28;;
25721;SDS011;13578;53.450;15.496;2023-05-06T04:10:27;6.07;;;3.60;;
25721;SDS011;13578;53.450;15.496;2023-05-06T04:13:28;11.60;;;5.88;;
25721;SDS011;13578;53.450;15.496;2023-05-06T04:16:28;10.70;;;4.43;;
25721;SDS011;13578;53.450;15.496;2023-05-06T04:19:29;8.35;;;3.85;;
25721;SDS011;13578;53.450;15.496;2023-05-06T04:22:31;5.05;;;4.43;;
25721;SDS011;13578;53.450;15.496;2023-05-06T04:25:32;6.22;;;4.38;;
25721;SDS011;13578;53.450;15.496;2023-05-06T04:28:35;6.93;;;4.53;;
25721;SDS011;13578;53.450;15.496;2023-05-06T04:31:35;16.73;;;4.65;;
25721;SDS011;13578;53.450;15.496;2023-05-06T04:34:36;5.68;;;4.32;;
25721;SDS011;13578;53.450;15.496;2023-05-06T04:37:37;5.32;;;4.30;;
25721;SDS011;13578;53.450;15.496;2023-05-06T04:40:37;5.88;;;4.32;;
25721;SDS011;13578;53.450;15.496;2023-05-06T04:43:38;9.10;;;4.00;;
25721;SDS011;13578;53.450;15.496;2023-05-06T04:46:39;9.27;;;4.30;;
25721;SDS011;13578;53.450;15.496;2023-05-06T04:49:40;7.95;;;4.82;;
25721;SDS011;13578;53.450;15.496;2023-05-06T04:52:41;6.47;;;4.30;;
25721;SDS011;13578;53.450;15.496;2023-05-06T04:55:42;12.45;;;5.03;;
25721;SDS011;13578;53.450;15.496;2023-05-06T04:58:43;24.15;;;4.80;;
25721;SDS011;13578;53.450;15.496;2023-05-06T05:01:43;5.70;;;4.15;;
25721;SDS011;13578;53.450;15.496;2023-05-06T05:04:45;5.45;;;4.80;;
25721;SDS011;13578;53.450;15.496;2023-05-06T05:07:45;6.68;;;4.72;;
25721;SDS011;13578;53.450;15.496;2023-05-06T05:10:46;9.85;;;5.05;;
25721;SDS011;13578;53.450;15.496;2023-05-06T05:13:47;9.45;;;4.68;;
25721;SDS011;13578;53.450;15.496;2023-05-06T05:16:47;5.28;;;4.68;;
25721;SDS011;13578;53.450;15.496;2023-05-06T05:19:48;8.48;;;4.97;;
25721;SDS011;13578;53.450;15.496;2023-05-06T05:22:49;10.38;;;4.72;;
25721;SDS011;13578;53.450;15.496;2023-05-06T05:25:49;4.38;;;3.83;;
25721;SDS011;13578;53.450;15.496;2023-05-06T05:28:50;7.45;;;5.82;;
25721;SDS011;13578;53.450;15.496;2023-05-06T05:31:51;7.05;;;4.43;;
25721;SDS011;13578;53.450;15.496;2023-05-06T05:34:51;6.97;;;4.20;;
25721;SDS011;13578;53.450;15.496;2023-05-06T05:37:52;9.68;;;4.80;;
25721;SDS011;13578;53.450;15.496;2023-05-06T05:40:53;4.55;;;4.10;;
25721;SDS011;13578;53.450;15.496;2023-05-06T05:43:53;5.97;;;4.75;;
25721;SDS011;13578;53.450;15.496;2023-05-06T05:46:54;5.95;;;4.45;;
25721;SDS011;13578;53.450;15.496;2023-05-06T05:49:55;4.82;;;4.32;;
25721;SDS011;13578;53.450;15.496;2023-05-06T05:52:55;9.30;;;4.63;;
25721;SDS011;13578;53.450;15.496;2023-05-06T05:55:56;10.25;;;4.93;;
25721;SDS011;13578;53.450;15.496;2023-05-06T05:58:57;6.80;;;5.20;;
25721;SDS011;13578;53.450;15.496;2023-05-06T06:01:57;7.20;;;4.72;;
25721;SDS011;13578;53.450;15.496;2023-05-06T06:04:58;8.45;;;4.00;;
25721;SDS011;13578;53.450;15.496;2023-05-06T06:07:59;4.80;;;3.95;;
25721;SDS011;13578;53.450;15.496;2023-05-06T06:11:00;4.80;;;4.32;;
25721;SDS011;13578;53.450;15.496;2023-05-06T06:14:03;11.75;;;4.55;;
25721;SDS011;13578;53.450;15.496;2023-05-06T06:17:03;4.20;;;3.80;;
25721;SDS011;13578;53.450;15.496;2023-05-06T06:20:04;8.88;;;4.38;;
25721;SDS011;13578;53.450;15.496;2023-05-06T06:23:05;13.88;;;4.68;;
25721;SDS011;13578;53.450;15.496;2023-05-06T06:26:06;12.48;;;5.85;;
25721;SDS011;13578;53.450;15.496;2023-05-06T06:29:07;6.07;;;4.38;;
25721;SDS011;13578;53.450;15.496;2023-05-06T06:32:08;9.88;;;3.88;;
25721;SDS011;13578;53.450;15.496;2023-05-06T06:35:08;4.75;;;3.88;;
25721;SDS011;13578;53.450;15.496;2023-05-06T06:38:09;6.28;;;4.13;;
25721;SDS011;13578;53.450;15.496;2023-05-06T06:41:09;5.88;;;4.07;;
25721;SDS011;13578;53.450;15.496;2023-05-06T06:44:10;9.45;;;5.07;;
25721;SDS011;13578;53.450;15.496;2023-05-06T06:47:11;8.82;;;4.10;;
25721;SDS011;13578;53.450;15.496;2023-05-06T06:50:11;7.53;;;3.75;;
25721;SDS011;13578;53.450;15.496;2023-05-06T06:53:12;6.53;;;4.43;;
25721;SDS011;13578;53.450;15.496;2023-05-06T06:56:13;6.90;;;4.43;;
25721;SDS011;13578;53.450;15.496;2023-05-06T06:59:15;5.28;;;4.20;;
25721;SDS011;13578;53.450;15.496;2023-05-06T07:02:15;6.47;;;4.07;;
25721;SDS011;13578;53.450;15.496;2023-05-06T07:05:16;8.80;;;4.18;;
25721;SDS011;13578;53.450;15.496;2023-05-06T07:08:17;15.05;;;4.03;;
25721;SDS011;13578;53.450;15.496;2023-05-06T07:11:20;7.45;;;4.45;;
25721;SDS011;13578;53.450;15.496;2023-05-06T07:14:21;5.63;;;4.05;;
25721;SDS011;13578;53.450;15.496;2023-05-06T07:17:21;8.93;;;5.05;;
25721;SDS011;13578;53.450;15.496;2023-05-06T07:20:22;5.35;;;3.83;;
25721;SDS011;13578;53.450;15.496;2023-05-06T07:23:22;8.82;;;4.85;;
25721;SDS011;13578;53.450;15.496;2023-05-06T07:26:23;8.70;;;3.92;;
25721;SDS011;13578;53.450;15.496;2023-05-06T07:29:24;5.75;;;4.53;;
25721;SDS011;13578;53.450;15.496;2023-05-06T07:32:25;5.68;;;4.53;;
25721;SDS011;13578;53.450;15.496;2023-05-06T07:35:25;7.25;;;4.53;;
25721;SDS011;13578;53.450;15.496;2023-05-06T07:38:26;5.07;;;4.30;;
25721;SDS011;13578;53.450;15.496;2023-05-06T07:41:27;4.47;;;4.07;;
25721;SDS011;13578;53.450;15.496;2023-05-06T07:44:27;6.75;;;4.35;;
25721;SDS011;13578;53.450;15.496;2023-05-06T07:47:29;5.20;;;4.45;;
25721;SDS011;13578;53.450;15.496;2023-05-06T07:50:31;8.20;;;4.57;;
25721;SDS011;13578;53.450;15.496;2023-05-06T07:53:31;5.65;;;4.05;;
25721;SDS011;13578;53.450;15.496;2023-05-06T07:56:32;7.47;;;4.43;;
25721;SDS011;13578;53.450;15.496;2023-05-06T07:59:33;5.70;;;4.70;;
25721;SDS011;13578;53.450;15.496;2023-05-06T08:02:33;19.60;;;5.65;;
25721;SDS011;13578;53.450;15.496;2023-05-06T08:05:35;7.07;;;4.45;;
25721;SDS011;13578;53.450;15.496;2023-05-06T08:08:35;12.43;;;4.50;;
25721;SDS011;13578;53.450;15.496;2023-05-06T08:11:36;7.28;;;4.88;;
25721;SDS011;13578;53.450;15.496;2023-05-06T08:14:36;12.40;;;6.78;;
25721;SDS011;13578;53.450;15.496;2023-05-06T08:17:37;7.05;;;4.60;;
25721;SDS011;13578;53.450;15.496;2023-05-06T08:20:38;7.53;;;5.30;;
25721;SDS011;13578;53.450;15.496;2023-05-06T08:23:38;10.20;;;4.88;;
25721;SDS011;13578;53.450;15.496;2023-05-06T08:26:39;8.18;;;4.80;;
25721;SDS011;13578;53.450;15.496;2023-05-06T08:29:40;7.97;;;4.22;;
25721;SDS011;13578;53.450;15.496;2023-05-06T08:32:41;12.32;;;5.20;;
25721;SDS011;13578;53.450;15.496;2023-05-06T08:35:41;5.63;;;5.00;;
25721;SDS011;13578;53.450;15.496;2023-05-06T08:38:42;6.57;;;4.50;;
25721;SDS011;13578;53.450;15.496;2023-05-06T08:41:50;8.45;;;4.53;;
25721;SDS011;13578;53.450;15.496;2023-05-06T08:44:53;5.20;;;4.65;;
25721;SDS011;13578;53.450;15.496;2023-05-06T08:47:55;5.90;;;4.90;;
25721;SDS011;13578;53.450;15.496;2023-05-06T08:50:56;5.47;;;4.18;;
25721;SDS011;13578;53.450;15.496;2023-05-06T08:54:00;6.68;;;4.63;;
25721;SDS011;13578;53.450;15.496;2023-05-06T08:57:03;5.75;;;4.78;;
25721;SDS011;13578;53.450;15.496;2023-05-06T09:00:07;7.75;;;4.07;;
25721;SDS011;13578;53.450;15.496;2023-05-06T09:03:10;6.22;;;4.68;;
25721;SDS011;13578;53.450;15.496;2023-05-06T09:06:10;14.13;;;6.63;;
25721;SDS011;13578;53.450;15.496;2023-05-06T09:09:11;8.30;;;4.95;;
25721;SDS011;13578;53.450;15.496;2023-05-06T09:12:13;8.02;;;4.30;;
25721;SDS011;13578;53.450;15.496;2023-05-06T09:15:14;6.25;;;4.38;;
25721;SDS011;13578;53.450;15.496;2023-05-06T09:18:15;8.15;;;4.35;;
25721;SDS011;13578;53.450;15.496;2023-05-06T09:21:16;13.60;;;4.95;;
25721;SDS011;13578;53.450;15.496;2023-05-06T09:24:17;7.63;;;4.55;;
25721;SDS011;13578;53.450;15.496;2023-05-06T09:27:17;6.50;;;4.90;;
25721;SDS011;13578;53.450;15.496;2023-05-06T09:30:20;8.05;;;4.00;;
25721;SDS011;13578;53.450;15.496;2023-05-06T09:33:21;8.43;;;4.85;;
25721;SDS011;13578;53.450;15.496;2023-05-06T09:36:22;11.38;;;5.32;;
25721;SDS011;13578;53.450;15.496;2023-05-06T09:39:24;7.32;;;4.82;;
25721;SDS011;13578;53.450;15.496;2023-05-06T09:42:29;11.77;;;4.90;;
25721;SDS011;13578;53.450;15.496;2023-05-06T09:45:30;7.88;;;4.80;;
25721;SDS011;13578;53.450;15.496;2023-05-06T09:48:32;8.02;;;4.90;;
25721;SDS011;13578;53.450;15.496;2023-05-06T09:51:32;16.58;;;4.80;;
25721;SDS011;13578;53.450;15.496;2023-05-06T09:54:33;9.43;;;5.13;;
25721;SDS011;13578;53.450;15.496;2023-05-06T09:57:34;8.77;;;4.65;;
25721;SDS011;13578;53.450;15.496;2023-05-06T10:00:36;6.32;;;5.35;;
25721;SDS011;13578;53.450;15.496;2023-05-06T10:03:37;12.18;;;6.03;;
25721;SDS011;13578;53.450;15.496;2023-05-06T10:06:39;5.50;;;4.57;;
25721;SDS011;13578;53.450;15.496;2023-05-06T10:09:40;7.43;;;5.03;;
25721;SDS011;13578;53.450;15.496;2023-05-06T10:12:41;6.38;;;4.60;;
25721;SDS011;13578;53.450;15.496;2023-05-06T10:15:44;8.00;;;5.03;;
25721;SDS011;13578;53.450;15.496;2023-05-06T10:18:46;9.13;;;4.55;;
25721;SDS011;13578;53.450;15.496;2023-05-06T10:21:53;12.07;;;5.40;;
25721;SDS011;13578;53.450;15.496;2023-05-06T10:25:11;6.90;;;4.97;;
25721;SDS011;13578;53.450;15.496;2023-05-06T10:28:18;6.00;;;4.63;;
25721;SDS011;13578;53.450;15.496;2023-05-06T10:31:20;6.13;;;4.72;;
25721;SDS011;13578;53.450;15.496;2023-05-06T10:34:21;8.93;;;5.05;;
25721;SDS011;13578;53.450;15.496;2023-05-06T10:37:24;8.25;;;4.72;;
25721;SDS011;13578;53.450;15.496;2023-05-06T10:40:27;11.45;;;5.15;;
25721;SDS011;13578;53.450;15.496;2023-05-06T10:43:29;7.82;;;4.60;;
25721;SDS011;13578;53.450;15.496;2023-05-06T10:46:34;5.63;;;4.38;;
25721;SDS011;13578;53.450;15.496;2023-05-06T10:53:39;7.05;;;5.75;;
25721;SDS011;13578;53.450;15.496;2023-05-06T10:57:17;7.90;;;5.25;;
25721;SDS011;13578;53.450;15.496;2023-05-06T11:00:20;11.57;;;5.90;;
25721;SDS011;13578;53.450;15.496;2023-05-06T11:03:22;9.57;;;4.75;;
25721;SDS011;13578;53.450;15.496;2023-05-06T11:06:44;6.82;;;4.88;;
25721;SDS011;13578;53.450;15.496;2023-05-06T11:10:01;8.35;;;5.13;;
25721;SDS011;13578;53.450;15.496;2023-05-06T11:13:28;6.13;;;4.70;;
25721;SDS011;13578;53.450;15.496;2023-05-06T11:17:02;6.43;;;4.93;;
25721;SDS011;13578;53.450;15.496;2023-05-06T11:24:24;6.65;;;5.50;;
25721;SDS011;13578;53.450;15.496;2023-05-06T11:26:58;7.00;;;5.13;;
25721;SDS011;13578;53.450;15.496;2023-05-06T11:29:59;9.15;;;5.47;;
25721;SDS011;13578;53.450;15.496;2023-05-06T11:33:00;7.65;;;4.95;;
25721;SDS011;13578;53.450;15.496;2023-05-06T11:36:04;6.80;;;5.10;;
25721;SDS011;13578;53.450;15.496;2023-05-06T11:39:06;8.95;;;4.50;;
25721;SDS011;13578;53.450;15.496;2023-05-06T12:09:20;7.18;;;5.10;;
25721;SDS011;13578;53.450;15.496;2023-05-06T12:12:21;8.45;;;5.63;;
25721;SDS011;13578;53.450;15.496;2023-05-06T12:15:23;8.63;;;5.45;;
25721;SDS011;13578;53.450;15.496;2023-05-06T12:18:24;6.32;;;4.68;;
25721;SDS011;13578;53.450;15.496;2023-05-06T12:21:25;7.75;;;6.00;;
25721;SDS011;13578;53.450;15.496;2023-05-06T12:24:26;7.05;;;5.22;;
25721;SDS011;13578;53.450;15.496;2023-05-06T12:27:31;8.05;;;5.15;;
25721;SDS011;13578;53.450;15.496;2023-05-06T12:30:32;10.57;;;5.97;;
25721;SDS011;13578;53.450;15.496;2023-05-06T12:33:45;8.30;;;5.40;;
25721;SDS011;13578;53.450;15.496;2023-05-06T12:36:48;10.75;;;5.53;;
25721;SDS011;13578;53.450;15.496;2023-05-06T12:39:48;8.75;;;6.03;;
25721;SDS011;13578;53.450;15.496;2023-05-06T12:42:53;6.70;;;4.78;;
25721;SDS011;13578;53.450;15.496;2023-05-06T12:46:04;8.37;;;5.60;;
25721;SDS011;13578;53.450;15.496;2023-05-06T12:49:06;7.65;;;5.38;;
25721;SDS011;13578;53.450;15.496;2023-05-06T12:52:07;7.53;;;5.35;;
25721;SDS011;13578;53.450;15.496;2023-05-06T12:55:09;8.13;;;5.38;;
25721;SDS011;13578;53.450;15.496;2023-05-06T12:58:16;7.80;;;5.32;;
25721;SDS011;13578;53.450;15.496;2023-05-06T13:01:18;9.15;;;4.82;;
25721;SDS011;13578;53.450;15.496;2023-05-06T13:04:21;7.38;;;5.28;;
25721;SDS011;13578;53.450;15.496;2023-05-06T13:07:22;8.38;;;5.00;;
25721;SDS011;13578;53.450;15.496;2023-05-06T13:10:22;10.40;;;5.40;;
25721;SDS011;13578;53.450;15.496;2023-05-06T13:13:23;9.73;;;6.00;;
25721;SDS011;13578;53.450;15.496;2023-05-06T13:16:24;8.98;;;5.30;;
25721;SDS011;13578;53.450;15.496;2023-05-06T13:19:24;9.90;;;5.15;;
25721;SDS011;13578;53.450;15.496;2023-05-06T13:22:25;10.80;;;5.55;;
25721;SDS011;13578;53.450;15.496;2023-05-06T13:25:26;7.70;;;4.82;;
25721;SDS011;13578;53.450;15.496;2023-05-06T13:28:27;6.82;;;5.10;;
25721;SDS011;13578;53.450;15.496;2023-05-06T13:31:37;7.55;;;5.28;;
25721;SDS011;13578;53.450;15.496;2023-05-06T13:34:37;5.85;;;4.97;;
25721;SDS011;13578;53.450;15.496;2023-05-06T13:37:38;12.95;;;5.43;;
25721;SDS011;13578;53.450;15.496;2023-05-06T13:40:38;8.88;;;5.57;;
25721;SDS011;13578;53.450;15.496;2023-05-06T13:43:39;6.10;;;5.03;;
25721;SDS011;13578;53.450;15.496;2023-05-06T13:46:40;7.05;;;4.88;;
25721;SDS011;13578;53.450;15.496;2023-05-06T13:49:41;6.93;;;5.03;;
25721;SDS011;13578;53.450;15.496;2023-05-06T13:52:41;11.32;;;5.25;;
25721;SDS011;13578;53.450;15.496;2023-05-06T13:55:42;7.20;;;4.75;;
25721;SDS011;13578;53.450;15.496;2023-05-06T13:58:42;9.15;;;4.78;;
25721;SDS011;13578;53.450;15.496;2023-05-06T14:01:43;6.63;;;4.43;;
25721;SDS011;13578;53.450;15.496;2023-05-06T14:04:44;7.45;;;4.45;;
25721;SDS011;13578;53.450;15.496;2023-05-06T14:07:44;12.60;;;4.63;;
25721;SDS011;13578;53.450;15.496;2023-05-06T14:10:45;9.07;;;4.70;;
25721;SDS011;13578;53.450;15.496;2023-05-06T14:13:46;7.63;;;4.60;;
25721;SDS011;13578;53.450;15.496;2023-05-06T14:16:48;9.30;;;5.57;;
25721;SDS011;13578;53.450;15.496;2023-05-06T14:19:50;6.60;;;4.75;;
25721;SDS011;13578;53.450;15.496;2023-05-06T14:22:51;7.75;;;5.03;;
25721;SDS011;13578;53.450;15.496;2023-05-06T14:25:52;13.95;;;5.22;;
25721;SDS011;13578;53.450;15.496;2023-05-06T14:28:52;10.57;;;5.50;;
25721;SDS011;13578;53.450;15.496;2023-05-06T14:31:53;7.15;;;4.45;;
25721;SDS011;13578;53.450;15.496;2023-05-06T14:34:53;9.23;;;5.00;;
25721;SDS011;13578;53.450;15.496;2023-05-06T14:37:55;6.10;;;4.68;;
25721;SDS011;13578;53.450;15.496;2023-05-06T14:40:55;8.05;;;4.22;;
25721;SDS011;13578;53.450;15.496;2023-05-06T14:43:56;6.78;;;4.22;;
25721;SDS011;13578;53.450;15.496;2023-05-06T14:46:56;7.68;;;4.25;;
25721;SDS011;13578;53.450;15.496;2023-05-06T14:49:57;6.85;;;4.53;;
25721;SDS011;13578;53.450;15.496;2023-05-06T14:52:57;8.98;;;4.35;;
25721;SDS011;13578;53.450;15.496;2023-05-06T14:55:58;10.98;;;4.90;;
25721;SDS011;13578;53.450;15.496;2023-05-06T14:58:59;7.28;;;4.53;;
25721;SDS011;13578;53.450;15.496;2023-05-06T15:01:59;10.82;;;5.38;;
25721;SDS011;13578;53.450;15.496;2023-05-06T15:05:00;10.13;;;4.82;;
25721;SDS011;13578;53.450;15.496;2023-05-06T15:08:01;7.75;;;4.40;;
25721;SDS011;13578;53.450;15.496;2023-05-06T15:11:01;6.63;;;4.47;;
25721;SDS011;13578;53.450;15.496;2023-05-06T15:14:02;9.73;;;4.53;;
25721;SDS011;13578;53.450;15.496;2023-05-06T15:17:03;6.75;;;4.47;;
25721;SDS011;13578;53.450;15.496;2023-05-06T15:20:05;6.32;;;4.15;;
25721;SDS011;13578;53.450;15.496;2023-05-06T15:23:07;8.25;;;4.63;;
25721;SDS011;13578;53.450;15.496;2023-05-06T15:26:08;8.25;;;4.25;;
25721;SDS011;13578;53.450;15.496;2023-05-06T15:29:08;8.48;;;4.53;;
25721;SDS011;13578;53.450;15.496;2023-05-06T15:32:09;9.32;;;4.72;;
25721;SDS011;13578;53.450;15.496;2023-05-06T15:35:10;5.72;;;4.38;;
25721;SDS011;13578;53.450;15.496;2023-05-06T15:38:10;10.32;;;4.63;;
25721;SDS011;13578;53.450;15.496;2023-05-06T15:41:11;9.98;;;4.47;;
25721;SDS011;13578;53.450;15.496;2023-05-06T15:44:11;23.25;;;4.60;;
25721;SDS011;13578;53.450;15.496;2023-05-06T15:47:12;6.63;;;4.88;;
25721;SDS011;13578;53.450;15.496;2023-05-06T15:50:13;7.20;;;4.63;;
25721;SDS011;13578;53.450;15.496;2023-05-06T15:53:14;7.93;;;4.82;;
25721;SDS011;13578;53.450;15.496;2023-05-06T15:56:16;6.97;;;4.38;;
25721;SDS011;13578;53.450;15.496;2023-05-06T15:59:18;6.90;;;4.95;;
25721;SDS011;13578;53.450;15.496;2023-05-06T16:02:18;8.02;;;4.72;;
25721;SDS011;13578;53.450;15.496;2023-05-06T16:05:19;13.23;;;4.47;;
25721;SDS011;13578;53.450;15.496;2023-05-06T16:08:21;7.50;;;4.95;;
25721;SDS011;13578;53.450;15.496;2023-05-06T16:11:22;7.38;;;4.70;;
25721;SDS011;13578;53.450;15.496;2023-05-06T16:14:22;5.63;;;3.83;;
25721;SDS011;13578;53.450;15.496;2023-05-06T16:17:23;7.40;;;4.38;;
25721;SDS011;13578;53.450;15.496;2023-05-06T16:20:24;8.88;;;4.57;;
25721;SDS011;13578;53.450;15.496;2023-05-06T16:23:24;13.80;;;4.72;;
25721;SDS011;13578;53.450;15.496;2023-05-06T16:26:25;7.20;;;4.07;;
25721;SDS011;13578;53.450;15.496;2023-05-06T16:29:25;7.03;;;4.57;;
25721;SDS011;13578;53.450;15.496;2023-05-06T16:32:26;6.95;;;4.90;;
25721;SDS011;13578;53.450;15.496;2023-05-06T16:35:27;7.40;;;3.80;;
25721;SDS011;13578;53.450;15.496;2023-05-06T16:38:28;8.77;;;4.85;;
25721;SDS011;13578;53.450;15.496;2023-05-06T16:41:29;6.35;;;3.92;;
25721;SDS011;13578;53.450;15.496;2023-05-06T16:44:30;10.73;;;4.32;;
25721;SDS011;13578;53.450;15.496;2023-05-06T16:47:30;12.10;;;4.45;;
25721;SDS011;13578;53.450;15.496;2023-05-06T16:50:31;6.72;;;4.55;;
25721;SDS011;13578;53.450;15.496;2023-05-06T16:53:31;6.38;;;4.00;;
25721;SDS011;13578;53.450;15.496;2023-05-06T16:56:32;5.78;;;4.15;;
25721;SDS011;13578;53.450;15.496;2023-05-06T16:59:33;7.00;;;3.78;;
25721;SDS011;13578;53.450;15.496;2023-05-06T17:02:33;6.32;;;4.03;;
25721;SDS011;13578;53.450;15.496;2023-05-06T17:05:34;5.95;;;4.00;;
25721;SDS011;13578;53.450;15.496;2023-05-06T17:08:35;6.50;;;3.95;;
25721;SDS011;13578;53.450;15.496;2023-05-06T17:11:36;8.23;;;4.53;;
25721;SDS011;13578;53.450;15.496;2023-05-06T17:14:37;5.40;;;3.63;;
25721;SDS011;13578;53.450;15.496;2023-05-06T17:17:40;10.57;;;4.50;;
25721;SDS011;13578;53.450;15.496;2023-05-06T17:20:41;7.22;;;4.05;;
25721;SDS011;13578;53.450;15.496;2023-05-06T17:23:41;7.32;;;4.53;;
25721;SDS011;13578;53.450;15.496;2023-05-06T17:26:42;5.40;;;3.67;;
25721;SDS011;13578;53.450;15.496;2023-05-06T17:29:43;8.18;;;4.00;;
25721;SDS011;13578;53.450;15.496;2023-05-06T17:32:47;7.13;;;3.67;;
25721;SDS011;13578;53.450;15.496;2023-05-06T17:35:48;7.63;;;3.55;;
25721;SDS011;13578;53.450;15.496;2023-05-06T17:39:00;5.25;;;3.97;;
25721;SDS011;13578;53.450;15.496;2023-05-06T17:42:02;6.97;;;3.67;;
25721;SDS011;13578;53.450;15.496;2023-05-06T17:45:03;9.38;;;4.40;;
25721;SDS011;13578;53.450;15.496;2023-05-06T17:48:04;10.10;;;3.72;;
25721;SDS011;13578;53.450;15.496;2023-05-06T17:51:04;6.32;;;4.40;;
25721;SDS011;13578;53.450;15.496;2023-05-06T17:54:05;7.97;;;4.97;;
25721;SDS011;13578;53.450;15.496;2023-05-06T17:57:06;6.95;;;4.68;;
25721;SDS011;13578;53.450;15.496;2023-05-06T18:00:07;7.70;;;4.60;;
25721;SDS011;13578;53.450;15.496;2023-05-06T18:03:08;9.82;;;5.13;;
25721;SDS011;13578;53.450;15.496;2023-05-06T18:06:09;8.77;;;4.82;;
25721;SDS011;13578;53.450;15.496;2023-05-06T18:09:11;8.30;;;4.28;;
25721;SDS011;13578;53.450;15.496;2023-05-06T18:12:12;6.35;;;4.60;;
25721;SDS011;13578;53.450;15.496;2023-05-06T18:15:12;7.05;;;4.45;;
25721;SDS011;13578;53.450;15.496;2023-05-06T18:18:13;5.45;;;4.32;;
25721;SDS011;13578;53.450;15.496;2023-05-06T18:21:14;5.32;;;3.83;;
25721;SDS011;13578;53.450;15.496;2023-05-06T18:24:15;7.07;;;4.32;;
25721;SDS011;13578;53.450;15.496;2023-05-06T18:27:15;7.30;;;4.50;;
25721;SDS011;13578;53.450;15.496;2023-05-06T18:30:16;8.30;;;4.53;;
25721;SDS011;13578;53.450;15.496;2023-05-06T18:33:17;11.85;;;4.32;;